Time;durP1;ratioP1;P1;durP2;ratioP2;P2;SDS_P1;SDS_P2;PMS_P1;PMS_P2;Temp;Humidity;BMP_temperature;BMP_pressure;BME280_temperature;BME280_humidity;BME280_pressure;Samples;Min_cycle;Max_cycle;Signal;HPM_P1;HPM_P2
2021/03/14 00:01:51;;;;;;;3.05;1.20;;;;;;;3.03;87.20;97873.50;5056073;28;20049;-80
2021/03/14 00:04:18;;;;;;;3.00;1.00;;;;;;;3.21;87.42;97886.75;5061039;28;20511;-80
2021/03/14 00:06:45;;;;;;;4.22;1.17;;;;;;;3.07;86.84;97890.09;5060368;28;20132;-79
2021/03/14 00:09:12;;;;;;;2.28;0.93;;;;;;;3.04;87.56;97901.19;5067021;28;20053;-79
2021/03/14 00:11:38;;;;;;;1.65;0.80;;;;;;;2.93;86.27;97894.31;5057816;28;20048;-79
2021/03/14 00:14:04;;;;;;;1.13;1.13;;;;;;;3.05;86.05;97914.44;5059734;28;20398;-79
2021/03/14 00:16:31;;;;;;;3.13;0.93;;;;;;;3.01;85.31;97900.53;5070717;28;20056;-79
2021/03/14 00:18:58;;;;;;;2.38;1.02;;;;;;;3.01;86.27;97900.53;5068992;28;20048;-79
2021/03/14 00:21:24;;;;;;;1.48;0.95;;;;;;;3.13;86.85;97905.53;5065917;28;20041;-79
2021/03/14 00:23:51;;;;;;;0.80;0.80;;;;;;;3.10;86.24;97917.47;5064166;28;20053;-79
2021/03/14 00:26:17;;;;;;;0.80;0.80;;;;;;;3.03;86.54;97904.88;5051956;28;20554;-79
2021/03/14 00:28:43;;;;;;;1.65;0.90;;;;;;;3.17;85.86;97913.09;5053205;28;20041;-79
2021/03/14 00:31:09;;;;;;;1.52;0.90;;;;;;;3.04;85.22;97898.50;5059278;28;20044;-79
2021/03/14 00:33:37;;;;;;;0.93;0.80;;;;;;;3.00;85.54;97911.44;5068784;28;20059;-79
2021/03/14 00:36:03;;;;;;;2.35;0.85;;;;;;;3.05;85.38;97916.28;5062126;28;20041;-78
2021/03/14 00:38:30;;;;;;;3.08;0.85;;;;;;;2.94;84.96;97915.63;5059882;28;20048;-78
2021/03/14 00:40:56;;;;;;;3.83;1.27;;;;;;;3.02;86.05;97928.19;5070111;28;20037;-77
2021/03/14 00:43:23;;;;;;;3.22;1.30;;;;;;;2.88;85.11;97928.88;5070748;28;20048;-78
2021/03/14 00:45:49;;;;;;;0.80;0.80;;;;;;;2.82;86.01;97935.75;5069803;28;20037;-78
2021/03/14 00:48:15;;;;;;;5.05;1.15;;;;;;;2.61;86.15;97918.25;5069928;28;20047;-79
2021/03/14 00:50:43;;;;;;;0.60;0.60;;;;;;;2.61;87.00;97937.03;5070386;28;20071;-78
2021/03/14 00:53:11;;;;;;;1.60;0.80;;;;;;;2.68;87.39;97950.66;5070199;28;20090;-79
2021/03/14 00:55:37;;;;;;;1.48;0.93;;;;;;;2.60;87.29;97945.25;5069848;28;20053;-79
2021/03/14 00:58:05;;;;;;;1.88;0.90;;;;;;;2.37;87.06;97918.22;5070191;28;20048;-79
2021/03/14 01:00:32;;;;;;;0.93;0.93;;;;;;;2.38;86.95;97918.03;5070401;28;20048;-79
2021/03/14 01:02:58;;;;;;;0.80;0.80;;;;;;;2.36;87.14;97938.81;5069848;28;20040;-78
2021/03/14 01:05:24;;;;;;;4.55;1.38;;;;;;;2.41;87.08;97943.69;5064254;28;20041;-79
2021/03/14 01:07:52;;;;;;;2.45;0.93;;;;;;;2.40;87.27;97944.69;5069872;28;20527;-78
2021/03/14 01:10:18;;;;;;;0.60;0.60;;;;;;;2.27;87.38;97934.41;5070429;28;20439;-79
2021/03/14 01:12:44;;;;;;;2.67;1.08;;;;;;;2.43;87.23;97945.19;5069205;28;20044;-79
2021/03/14 01:15:13;;;;;;;7.35;0.98;;;;;;;2.37;87.49;97924.41;5069031;28;20048;-78
2021/03/14 01:17:40;;;;;;;2.15;1.10;;;;;;;2.35;87.93;97934.47;5069289;28;20518;-78
2021/03/14 01:20:08;;;;;;;4.50;1.08;;;;;;;2.38;87.80;97939.50;5069854;28;20072;-79
2021/03/14 01:22:35;;;;;;;4.15;1.13;;;;;;;2.39;87.60;97943.00;5069930;28;20173;-78
2021/03/14 01:25:03;;;;;;;1.55;1.00;;;;;;;2.29;88.15;97933.25;5069247;28;20526;-78
2021/03/14 01:27:29;;;;;;;1.05;0.80;;;;;;;2.47;88.58;97959.97;5053655;28;20566;-78
2021/03/14 01:29:55;;;;;;;1.17;1.08;;;;;;;2.22;87.52;97951.00;5070281;28;20055;-79
2021/03/14 01:32:22;;;;;;;1.52;1.20;;;;;;;2.25;87.96;97960.56;5070021;28;20048;-78
2021/03/14 01:34:48;;;;;;;0.80;0.80;;;;;;;2.27;87.69;97959.41;5064079;28;20041;-78
2021/03/14 01:37:15;;;;;;;0.75;0.75;;;;;;;2.23;87.72;97968.78;5070205;28;20052;-78
2021/03/14 01:39:41;;;;;;;0.80;0.80;;;;;;;2.11;87.76;97952.13;5069698;28;20064;-79
2021/03/14 01:42:08;;;;;;;0.80;0.68;;;;;;;2.13;87.88;97963.53;5070140;28;20053;-79
2021/03/14 01:44:34;;;;;;;2.28;0.95;;;;;;;2.15;87.66;97970.56;5069443;28;20048;-79
2021/03/14 01:47:01;;;;;;;1.50;0.75;;;;;;;2.19;88.19;97978.13;5070069;28;20451;-79
2021/03/14 01:49:28;;;;;;;2.13;0.60;;;;;;;2.20;87.77;97976.28;5070943;28;20055;-79
2021/03/14 01:51:54;;;;;;;1.30;0.90;;;;;;;2.13;87.99;97973.41;5069860;28;20484;-79
2021/03/14 01:54:20;;;;;;;1.95;0.98;;;;;;;2.19;87.76;97974.63;5070068;28;20122;-79
2021/03/14 01:56:46;;;;;;;1.05;0.73;;;;;;;2.07;87.85;97957.97;5069663;28;20048;-79
2021/03/14 01:59:14;;;;;;;1.00;0.90;;;;;;;2.06;88.17;97964.34;5070041;28;20106;-79
2021/03/14 02:01:41;;;;;;;0.80;0.80;;;;;;;2.07;87.75;97966.84;5070018;28;20040;-79
2021/03/14 02:04:07;;;;;;;1.00;1.00;;;;;;;2.17;88.30;97971.25;5068762;28;20068;-79
2021/03/14 02:06:33;;;;;;;1.40;1.30;;;;;;;2.12;87.89;97982.47;5069771;28;20518;-79
2021/03/14 02:09:00;;;;;;;0.83;0.83;;;;;;;2.07;88.73;97974.91;5069743;28;20051;-78
2021/03/14 02:11:31;;;;;;;1.00;1.00;;;;;;;2.06;88.36;97962.50;5070025;28;20080;-78
2021/03/14 02:14:00;;;;;;;1.02;1.00;;;;;;;2.01;88.98;97967.50;5069808;28;20462;-78
2021/03/14 02:16:34;;;;;;;2.17;0.90;;;;;;;2.11;88.14;97987.00;5069091;28;20385;-79
2021/03/14 02:19:02;;;;;;;2.70;1.05;;;;;;;1.98;88.27;97969.66;5068630;28;20508;-79
2021/03/14 02:21:32;;;;;;;1.90;1.43;;;;;;;2.07;88.50;97982.94;5070001;28;20503;-78
2021/03/14 02:24:01;;;;;;;;;;;;;;;2.09;87.97;97990.81;5073983;28;20053;-78
2021/03/14 02:26:33;;;;;;;1.10;1.10;;;;;;;2.09;87.94;97997.03;5072912;28;19920;-78
2021/03/14 02:29:01;;;;;;;0.98;0.90;;;;;;;1.99;88.60;98004.34;5073345;28;20055;-78
2021/03/14 02:31:30;;;;;;;1.10;1.08;;;;;;;2.04;88.69;98006.56;5073486;28;20056;-78
2021/03/14 02:34:00;;;;;;;2.83;1.15;;;;;;;1.97;88.83;97998.28;5073294;28;20052;-78
2021/03/14 02:36:27;;;;;;;0.90;0.90;;;;;;;1.98;89.04;98002.66;5072190;28;20048;-79
2021/03/14 02:38:54;;;;;;;1.65;1.45;;;;;;;1.97;88.50;97998.28;5073398;28;20052;-78
2021/03/14 02:41:22;;;;;;;1.30;1.20;;;;;;;2.06;88.49;98013.44;5072480;28;20434;-78
2021/03/14 02:43:49;;;;;;;2.25;1.20;;;;;;;2.11;88.00;98002.25;5073432;28;20052;-78
2021/03/14 02:46:16;;;;;;;2.20;1.10;;;;;;;1.99;88.35;98004.34;5071960;28;20048;-78
2021/03/14 02:48:43;;;;;;;2.40;1.13;;;;;;;2.04;88.58;98011.91;5073299;28;20480;-78
2021/03/14 02:51:10;;;;;;;2.50;1.30;;;;;;;2.00;88.00;98010.53;5072918;28;20044;-79
2021/03/14 02:53:37;;;;;;;1.20;1.20;;;;;;;2.00;88.20;98022.09;5072191;28;20048;-78
2021/03/14 02:56:04;;;;;;;2.37;1.10;;;;;;;1.95;87.58;98016.38;5072861;28;20109;-78
2021/03/14 02:58:32;;;;;;;3.22;1.38;;;;;;;1.98;88.14;98021.44;5071893;28;20057;-79
2021/03/14 03:01:01;;;;;;;1.45;1.35;;;;;;;2.00;88.10;98018.59;5072903;28;20389;-78
2021/03/14 03:03:29;;;;;;;4.97;1.50;;;;;;;1.99;87.51;98024.94;5071972;28;20412;-78
2021/03/14 03:05:57;;;;;;;4.20;1.23;;;;;;;1.99;87.42;98032.97;5072504;28;20059;-78
2021/03/14 03:08:24;;;;;;;4.60;1.50;;;;;;;2.02;87.36;98040.72;5060739;28;20117;-78
2021/03/14 03:10:51;;;;;;;1.90;1.50;;;;;;;2.03;87.67;98053.13;5063005;28;20045;-79
2021/03/14 03:13:18;;;;;;;1.23;1.13;;;;;;;1.99;87.27;98054.44;5055185;28;20052;-79
2021/03/14 03:15:46;;;;;;;3.90;1.60;;;;;;;1.95;87.51;98054.75;5072081;28;20044;-79
2021/03/14 03:18:13;;;;;;;1.30;1.23;;;;;;;2.13;87.29;98078.00;5071728;28;20064;-79
2021/03/14 03:20:41;;;;;;;5.72;2.08;;;;;;;2.11;86.70;98072.78;5072213;28;20052;-79
2021/03/14 03:23:08;;;;;;;1.63;1.25;;;;;;;2.08;87.15;98075.78;5072592;28;20056;-79
2021/03/14 03:25:35;;;;;;;6.37;1.70;;;;;;;2.07;87.31;98070.59;5071418;28;20102;-79
2021/03/14 03:28:01;;;;;;;4.20;2.37;;;;;;;2.02;87.51;98068.38;5072468;28;20056;-79
2021/03/14 03:30:29;;;;;;;2.90;1.60;;;;;;;2.11;87.59;98096.91;5072420;28;20452;-79
2021/03/14 03:32:56;;;;;;;1.80;1.65;;;;;;;2.01;88.14;98084.63;5071354;28;20500;-79
2021/03/14 03:35:25;;;;;;;1.80;1.60;;;;;;;2.12;88.07;98101.28;5071814;28;20045;-79
2021/03/14 03:37:53;;;;;;;1.83;1.30;;;;;;;2.09;88.42;98109.66;5072221;28;20048;-79
2021/03/14 03:40:22;;;;;;;1.83;1.67;;;;;;;2.08;88.19;98113.31;5072122;28;20040;-78
2021/03/14 03:42:57;;;;;;;3.70;1.40;;;;;;;1.95;88.33;98111.03;5072294;28;20053;-79
2021/03/14 03:45:25;;;;;;;2.10;1.50;;;;;;;2.00;88.54;98112.41;5071235;28;20491;-79
2021/03/14 03:47:53;;;;;;;1.70;1.40;;;;;;;1.99;88.42;98125.00;5072245;28;20125;-79
2021/03/14 03:50:20;;;;;;;2.00;1.50;;;;;;;1.97;87.73;98128.81;5072144;28;20051;-79
2021/03/14 03:52:48;;;;;;;4.53;1.73;;;;;;;1.89;88.30;98113.50;5072052;28;20102;-79
2021/03/14 03:55:17;;;;;;;1.75;1.63;;;;;;;1.97;88.21;98144.91;5071264;28;20051;-79
2021/03/14 03:57:44;;;;;;;2.17;1.58;;;;;;;2.03;88.61;98142.44;5071374;28;20045;-79
2021/03/14 04:00:15;;;;;;;5.85;1.70;;;;;;;2.03;88.66;98144.28;5071706;28;20045;-79
2021/03/14 04:02:43;;;;;;;3.67;1.85;;;;;;;1.86;88.51;98130.72;5071640;28;20260;-78
2021/03/14 04:05:11;;;;;;;2.33;1.90;;;;;;;1.97;88.18;98151.09;5064943;28;20048;-79
2021/03/14 04:07:40;;;;;;;4.60;1.60;;;;;;;1.90;87.83;98147.38;5071693;28;20071;-79
2021/03/14 04:10:09;;;;;;;3.27;1.80;;;;;;;1.92;87.87;98154.22;5071608;28;20052;-79
2021/03/14 04:12:37;;;;;;;2.50;1.40;;;;;;;1.94;87.16;98156.75;5071309;28;20059;-79
2021/03/14 04:15:06;;;;;;;5.25;1.60;;;;;;;1.87;88.03;98161.91;5070897;28;20044;-79
2021/03/14 04:17:32;;;;;;;3.37;1.80;;;;;;;1.94;88.27;98168.34;5071221;28;20599;-78
2021/03/14 04:20:01;;;;;;;2.08;1.70;;;;;;;1.92;88.09;98164.97;5070287;28;20158;-79
2021/03/14 04:22:29;;;;;;;2.55;1.65;;;;;;;1.91;87.39;98167.78;5071412;28;20097;-79
2021/03/14 04:24:57;;;;;;;4.90;1.90;;;;;;;1.88;87.68;98168.97;5070287;28;20421;-79
2021/03/14 04:27:26;;;;;;;1.50;1.40;;;;;;;2.01;87.85;98194.53;5070922;28;20048;-79
2021/03/14 04:29:54;;;;;;;3.33;1.73;;;;;;;1.92;86.82;98182.88;5070865;28;20496;-79
2021/03/14 04:32:22;;;;;;;1.80;1.70;;;;;;;1.94;87.45;98210.38;5071196;28;20295;-79
2021/03/14 04:34:49;;;;;;;6.50;1.77;;;;;;;1.92;87.74;98212.38;5070065;28;20101;-79
2021/03/14 04:37:16;;;;;;;6.55;1.60;;;;;;;1.85;87.44;98205.94;5071031;28;20041;-79
2021/03/14 04:39:43;;;;;;;2.30;2.00;;;;;;;1.83;87.85;98205.25;5070221;28;20423;-79
2021/03/14 04:42:10;;;;;;;1.90;1.70;;;;;;;1.99;87.42;98226.00;5071044;28;20044;-79
2021/03/14 04:44:38;;;;;;;1.83;1.45;;;;;;;2.03;87.47;98238.97;5069724;28;20047;-79
2021/03/14 04:47:06;;;;;;;2.40;1.42;;;;;;;1.94;87.23;98213.91;5070336;28;20496;-79
2021/03/14 04:49:33;;;;;;;3.17;1.75;;;;;;;2.08;87.53;98243.88;5070637;28;20060;-79
2021/03/14 04:52:01;;;;;;;6.20;1.83;;;;;;;2.06;86.81;98238.66;5070743;28;20075;-78
2021/03/14 04:54:29;;;;;;;2.00;1.80;;;;;;;2.04;87.48;98234.44;5069546;28;20522;-79
2021/03/14 04:56:56;;;;;;;6.33;1.97;;;;;;;2.07;87.55;98239.50;5070415;28;20157;-79
2021/03/14 04:59:24;;;;;;;2.20;2.00;;;;;;;2.04;86.93;98239.81;5070064;28;20295;-79
2021/03/14 05:01:51;;;;;;;2.23;1.83;;;;;;;2.13;86.12;98255.78;5070466;28;20046;-79
2021/03/14 05:04:21;;;;;;;3.28;1.60;;;;;;;1.99;86.09;98231.34;5069651;28;20052;-78
2021/03/14 05:06:49;;;;;;;2.95;1.85;;;;;;;1.98;86.77;98238.56;5070780;28;20097;-79
2021/03/14 05:09:16;;;;;;;1.40;1.30;;;;;;;2.00;87.15;98244.59;5070700;28;20132;-78
2021/03/14 05:11:45;;;;;;;2.95;2.08;;;;;;;2.00;86.24;98247.28;5070379;28;20142;-79
2021/03/14 05:14:13;;;;;;;1.33;1.23;;;;;;;1.98;85.94;98238.56;5069527;28;20067;-79
2021/03/14 05:16:42;;;;;;;1.20;1.10;;;;;;;2.06;85.93;98261.94;5070151;28;20040;-78
2021/03/14 05:19:09;;;;;;;1.30;1.20;;;;;;;2.03;86.31;98260.41;5069479;28;20423;-79
2021/03/14 05:21:37;;;;;;;4.82;1.67;;;;;;;2.02;85.57;98261.41;5069889;28;20048;-79
2021/03/14 05:24:07;;;;;;;3.17;1.67;;;;;;;2.10;85.62;98268.69;5069636;28;20303;-78
2021/03/14 05:26:34;;;;;;;2.37;1.20;;;;;;;2.15;85.16;98285.13;5070161;28;20488;-79
2021/03/14 05:29:01;;;;;;;2.10;1.43;;;;;;;1.99;85.95;98276.94;5069708;28;20048;-79
2021/03/14 05:31:30;;;;;;;2.42;1.25;;;;;;;1.99;85.53;98283.16;5070150;28;20053;-79
2021/03/14 05:33:58;;;;;;;4.57;1.48;;;;;;;2.06;85.71;98291.41;5069764;28;20044;-79
2021/03/14 05:36:25;;;;;;;3.83;1.60;;;;;;;2.02;85.88;98290.88;5069566;28;20051;-79
2021/03/14 05:38:52;;;;;;;1.53;1.43;;;;;;;1.99;84.67;98296.56;5069901;28;20570;-79
2021/03/14 05:41:19;;;;;;;10.53;1.70;;;;;;;2.09;85.10;98304.53;5069929;28;20550;-79
2021/03/14 05:43:46;;;;;;;11.25;1.55;;;;;;;2.00;85.79;98300.91;5070304;28;20106;-79
2021/03/14 05:46:13;;;;;;;2.20;1.10;;;;;;;2.09;85.00;98316.09;5069007;28;20492;-79
2021/03/14 05:48:42;;;;;;;4.97;1.90;;;;;;;1.96;85.14;98307.59;5069368;28;20447;-79
2021/03/14 05:51:08;;;;;;;5.77;1.60;;;;;;;2.06;84.81;98329.81;5069146;28;20067;-79
2021/03/14 05:53:38;;;;;;;1.30;1.20;;;;;;;2.07;85.25;98331.47;5069049;28;20051;-78
2021/03/14 05:56:07;;;;;;;3.90;1.47;;;;;;;2.05;85.72;98338.00;5070040;28;20389;-78
2021/03/14 05:58:36;;;;;;;1.20;1.10;;;;;;;1.93;85.76;98332.00;5073291;28;20049;-79
2021/03/14 06:01:08;;;;;;;1.25;1.13;;;;;;;2.09;85.28;98363.50;5073411;28;20040;-79
2021/03/14 06:03:36;;;;;;;1.58;1.48;;;;;;;1.92;85.93;98344.56;5073066;28;20072;-78
2021/03/14 06:06:04;;;;;;;1.38;1.27;;;;;;;1.93;85.66;98350.78;5072742;28;20048;-79
2021/03/14 06:08:31;;;;;;;3.25;1.35;;;;;;;2.06;85.57;98363.81;5072996;28;20451;-79
2021/03/14 06:11:00;;;;;;;2.10;1.30;;;;;;;2.07;86.02;98365.50;5073313;28;20102;-79
2021/03/14 06:13:41;;;;;;;5.13;1.70;;;;;;;1.94;86.25;98347.94;5073216;28;20101;-78
2021/03/14 06:16:08;;;;;;;1.10;1.10;;;;;;;1.97;85.54;98362.03;5061952;28;20048;-79
2021/03/14 06:18:35;;;;;;;2.83;1.30;;;;;;;2.09;85.65;98387.63;5071966;28;20491;-79
2021/03/14 06:21:02;;;;;;;4.63;1.70;;;;;;;2.09;85.67;98393.00;5072885;28;20059;-79
2021/03/14 06:23:28;;;;;;;2.30;1.60;;;;;;;1.95;86.04;98375.59;5071992;28;20052;-80
2021/03/14 06:25:56;;;;;;;1.50;1.40;;;;;;;1.94;85.82;98384.59;5071903;28;20048;-79
2021/03/14 06:28:35;;;;;;;2.10;1.50;;;;;;;1.90;85.38;98388.59;5069937;28;20049;-79
2021/03/14 06:31:19;;;;;;;2.43;1.60;;;;;;;1.97;85.21;98419.16;5072917;28;20053;-79
2021/03/14 06:33:47;;;;;;;2.07;1.37;;;;;;;1.98;86.30;98417.34;5072550;28;20052;-79
2021/03/14 06:36:17;;;;;;;3.03;1.83;;;;;;;2.02;86.57;98432.97;5072280;28;20056;-79
2021/03/14 06:38:46;;;;;;;8.65;1.67;;;;;;;2.01;86.25;98439.34;5067485;28;20155;-79
2021/03/14 06:41:18;;;;;;;3.55;1.73;;;;;;;2.00;86.61;98426.06;5065582;28;20056;-79
2021/03/14 06:43:47;;;;;;;1.80;1.57;;;;;;;1.95;86.12;98434.56;5073050;28;20037;-79
2021/03/14 06:46:35;;;;;;;5.97;1.73;;;;;;;2.02;85.71;98446.38;5059055;28;20492;-79
2021/03/14 06:49:06;;;;;;;3.85;1.60;;;;;;;2.03;85.59;98457.94;5067881;28;20060;-78
2021/03/14 06:51:35;;;;;;;3.73;1.80;;;;;;;2.02;85.11;98457.13;5073124;28;20504;-78
2021/03/14 06:54:20;;;;;;;2.75;1.45;;;;;;;2.07;84.41;98467.41;5073137;28;20056;-78
2021/03/14 06:57:11;;;;;;;2.60;1.50;;;;;;;2.03;85.04;98472.22;5072827;28;20325;-80
2021/03/14 06:59:42;;;;;;;3.30;1.70;;;;;;;1.98;85.47;98460.25;5058908;28;20283;-80
2021/03/14 07:02:11;;;;;;;6.93;2.87;;;;;;;2.01;85.15;98459.94;5072199;28;20123;-78
2021/03/14 07:04:43;;;;;;;2.53;1.67;;;;;;;2.01;83.61;98474.19;5072829;28;20462;-78
2021/03/14 07:07:22;;;;;;;1.58;1.48;;;;;;;1.97;84.54;98486.19;5071120;28;20132;-78
2021/03/14 07:09:55;;;;;;;5.73;1.83;;;;;;;2.03;84.71;98495.47;5066232;28;20080;-77
2021/03/14 07:12:32;;;;;;;3.27;1.70;;;;;;;2.04;84.88;98505.22;5069886;28;20048;-78
2021/03/14 07:15:11;;;;;;;4.43;2.23;;;;;;;1.99;84.90;98503.00;5071770;28;20060;-77
2021/03/14 07:17:42;;;;;;;5.77;1.93;;;;;;;2.03;84.76;98515.13;5068290;28;20045;-78
2021/03/14 07:20:12;;;;;;;7.50;1.93;;;;;;;1.94;85.33;98524.00;5064216;28;20457;-78
2021/03/14 07:22:39;;;;;;;;;;;;;;;1.84;85.54;98533.94;5072825;28;20048;-79
2021/03/14 07:25:07;;;;;;;8.07;3.00;;;;;;;1.60;85.92;98529.88;5072977;28;19920;-78
2021/03/14 07:27:34;;;;;;;6.07;3.10;;;;;;;1.61;87.14;98536.06;5072010;28;20066;-78
2021/03/14 07:30:01;;;;;;;2.90;2.30;;;;;;;1.57;86.70;98528.31;5072523;28;20052;-78
2021/03/14 07:32:28;;;;;;;5.97;2.10;;;;;;;1.53;86.21;98523.41;5071598;28;20059;-78
2021/03/14 07:34:55;;;;;;;6.50;1.90;;;;;;;1.57;86.54;98539.03;5070577;28;20415;-78
2021/03/14 07:37:26;;;;;;;5.93;1.80;;;;;;;1.82;86.90;98557.34;5071129;28;20045;-78
2021/03/14 07:39:52;;;;;;;5.27;2.03;;;;;;;1.83;87.62;98557.19;5071224;28;20052;-79
2021/03/14 07:42:20;;;;;;;6.47;2.43;;;;;;;1.98;87.30;98554.06;5071384;28;20051;-79
2021/03/14 07:44:47;;;;;;;8.57;2.20;;;;;;;2.01;86.72;98554.63;5070967;28;20048;-79
2021/03/14 07:47:16;;;;;;;3.77;1.83;;;;;;;2.08;86.61;98579.03;5071097;28;20113;-79
2021/03/14 07:49:48;;;;;;;2.22;1.55;;;;;;;2.05;85.86;98568.59;5071305;28;20080;-79
2021/03/14 07:52:23;;;;;;;6.25;2.08;;;;;;;2.09;85.71;98580.69;5070736;28;20472;-79
2021/03/14 07:54:55;;;;;;;5.00;1.70;;;;;;;2.13;85.88;98574.91;5070734;28;20206;-81
2021/03/14 07:57:28;;;;;;;8.80;1.70;;;;;;;2.11;85.83;98568.00;5071054;28;20058;-80
2021/03/14 07:59:54;;;;;;;7.25;1.63;;;;;;;2.26;85.87;98584.47;5070755;28;20098;-81
2021/03/14 08:02:29;;;;;;;4.75;1.80;;;;;;;2.32;84.94;98589.25;5070176;28;20044;-80
2021/03/14 08:05:00;;;;;;;2.63;1.92;;;;;;;2.29;84.65;98590.38;5070565;28;20557;-79
2021/03/14 08:07:54;;;;;;;4.38;1.83;;;;;;;2.34;82.33;98579.22;5071166;28;20051;-80
2021/03/14 08:10:35;;;;;;;2.95;1.50;;;;;;;2.47;82.37;98585.09;5035077;28;20048;-80
2021/03/14 08:13:02;;;;;;;4.00;1.83;;;;;;;2.61;82.89;98593.66;5071563;28;20049;-79
2021/03/14 08:15:29;;;;;;;6.88;1.90;;;;;;;2.80;82.47;98598.94;5070395;28;20053;-79
2021/03/14 08:17:58;;;;;;;4.00;2.00;;;;;;;2.72;81.24;98577.34;5069143;28;20063;-79
2021/03/14 08:20:43;;;;;;;5.00;1.70;;;;;;;2.88;81.29;98591.97;5060007;28;20044;-79
2021/03/14 08:23:12;;;;;;;7.03;1.48;;;;;;;2.79;80.71;98591.88;5051321;28;20053;-80
2021/03/14 08:25:41;;;;;;;11.77;2.10;;;;;;;2.88;81.00;98597.34;5068348;28;20056;-80
2021/03/14 08:28:33;;;;;;;7.07;2.35;;;;;;;2.96;80.78;98606.31;5069717;28;20757;-80
2021/03/14 08:31:01;;;;;;;4.70;1.80;;;;;;;2.95;80.39;98601.09;5072252;28;20044;-80
2021/03/14 08:33:30;;;;;;;12.65;3.00;;;;;;;2.90;81.58;98592.66;5070469;28;20056;-79
2021/03/14 08:35:58;;;;;;;8.38;2.35;;;;;;;3.04;79.68;98607.41;5069452;28;20125;-78
2021/03/14 08:38:27;;;;;;;2.95;1.17;;;;;;;2.96;78.69;98597.44;5068576;28;20044;-78
2021/03/14 08:41:26;;;;;;;18.83;1.95;;;;;;;3.14;78.46;98613.59;5069383;28;20052;-78
2021/03/14 08:43:56;;;;;;;4.40;1.70;;;;;;;3.39;80.47;98609.31;5056759;28;20073;-78
2021/03/14 08:47:00;;;;;;;10.38;2.00;;;;;;;3.30;78.82;98599.50;5069841;28;20040;-78
2021/03/14 08:49:27;;;;;;;5.60;1.60;;;;;;;3.48;77.67;98621.00;5070638;28;20045;-78
2021/03/14 08:51:54;;;;;;;7.22;1.48;;;;;;;3.36;77.21;98623.91;5070179;28;20052;-78
2021/03/14 08:54:26;;;;;;;5.50;1.55;;;;;;;3.29;75.87;98640.78;5069429;28;20052;-78
2021/03/14 08:56:58;;;;;;;7.25;1.73;;;;;;;3.28;75.44;98639.06;5070109;28;20331;-78
2021/03/14 08:59:24;;;;;;;8.52;2.30;;;;;;;3.32;76.41;98621.66;5071179;28;20064;-78
2021/03/14 09:01:56;;;;;;;12.52;2.67;;;;;;;3.43;76.04;98634.88;5070593;28;20041;-78
2021/03/14 09:04:25;;;;;;;4.90;1.60;;;;;;;3.34;75.21;98617.84;5070055;28;20052;-79
2021/03/14 09:06:52;;;;;;;5.68;1.80;;;;;;;3.31;75.40;98636.09;5071918;28;20056;-78
2021/03/14 09:09:20;;;;;;;3.20;1.15;;;;;;;3.42;75.70;98637.72;5069466;28;20049;-78
2021/03/14 09:11:49;;;;;;;4.63;1.35;;;;;;;3.42;74.74;98635.00;5070805;28;20052;-78
2021/03/14 09:14:28;;;;;;;8.48;1.85;;;;;;;3.42;74.01;98640.38;5069199;28;20482;-78
2021/03/14 09:16:56;;;;;;;3.00;1.27;;;;;;;3.45;75.26;98630.19;5070159;28;20069;-78
2021/03/14 09:19:35;;;;;;;2.13;1.42;;;;;;;3.52;73.47;98633.09;5068011;28;20051;-78
2021/03/14 09:22:06;;;;;;;4.07;1.27;;;;;;;3.64;74.21;98652.56;5070344;28;20048;-77
2021/03/14 09:24:43;;;;;;;2.40;1.25;;;;;;;3.54;72.89;98650.78;5068874;28;20060;-78
2021/03/14 09:27:16;;;;;;;4.15;1.35;;;;;;;3.43;74.21;98659.06;5058079;28;20059;-79
2021/03/14 09:30:01;;;;;;;2.08;1.08;;;;;;;3.45;74.71;98658.94;5069926;28;20049;-79
2021/03/14 09:32:33;;;;;;;3.55;1.00;;;;;;;3.51;73.94;98650.25;5069460;28;20053;-79
2021/03/14 09:35:19;;;;;;;6.70;1.42;;;;;;;3.62;74.32;98651.88;5069033;28;20083;-79
2021/03/14 09:37:47;;;;;;;4.95;1.33;;;;;;;3.64;75.28;98641.78;5069807;28;20056;-79
2021/03/14 09:40:31;;;;;;;5.63;1.25;;;;;;;3.66;74.47;98648.72;5068696;28;20126;-80
2021/03/14 09:43:12;;;;;;;9.52;1.58;;;;;;;3.88;74.89;98649.25;5070018;28;20377;-79
2021/03/14 09:45:39;;;;;;;;;;;;;;;4.12;74.13;98651.28;5069757;28;20052;-79
2021/03/14 09:48:12;;;;;;;2.38;1.25;;;;;;;4.27;72.94;98650.72;5069281;28;19931;-79
2021/03/14 09:50:50;;;;;;;2.58;1.30;;;;;;;4.33;72.06;98642.03;5069582;28;20048;-79
2021/03/14 09:53:17;;;;;;;1.42;1.02;;;;;;;4.34;71.50;98625.72;5069132;28;20052;-79
2021/03/14 09:55:45;;;;;;;4.10;1.65;;;;;;;4.24;69.81;98643.81;5068447;28;20055;-79
2021/03/14 09:58:16;;;;;;;3.30;1.05;;;;;;;4.27;69.45;98645.34;5069406;28;20059;-79
2021/03/14 10:00:44;;;;;;;4.65;1.85;;;;;;;4.38;71.10;98618.16;5049719;28;20060;-79
2021/03/14 10:03:12;;;;;;;2.58;1.52;;;;;;;4.68;70.15;98635.69;5059175;28;20486;-79
2021/03/14 10:05:43;;;;;;;19.85;6.32;;;;;;;4.78;68.58;98622.09;5068203;28;20056;-80
2021/03/14 10:08:15;;;;;;;7.95;3.65;;;;;;;4.91;68.65;98633.25;5061065;28;20041;-79
2021/03/14 10:10:41;;;;;;;9.23;4.10;;;;;;;4.83;68.49;98646.69;5069183;28;20045;-79
2021/03/14 10:13:12;;;;;;;9.68;4.30;;;;;;;4.80;70.80;98641.63;5070504;28;20048;-79
2021/03/14 10:15:42;;;;;;;4.32;1.65;;;;;;;4.67;69.77;98639.38;5070524;28;20082;-79
2021/03/14 10:18:10;;;;;;;4.38;1.45;;;;;;;4.50;69.86;98633.06;5066184;28;20048;-79
2021/03/14 10:20:37;;;;;;;3.92;1.42;;;;;;;4.34;69.17;98630.28;5068791;28;20055;-79
2021/03/14 10:23:05;;;;;;;6.38;1.55;;;;;;;4.42;68.49;98652.69;5066614;28;20056;-79
2021/03/14 10:25:33;;;;;;;6.47;1.30;;;;;;;4.62;68.35;98652.47;5068263;28;20052;-79
2021/03/14 10:28:08;;;;;;;5.45;1.98;;;;;;;4.70;67.74;98654.38;5068664;28;20048;-79
2021/03/14 10:30:36;;;;;;;5.68;1.60;;;;;;;4.65;66.58;98662.91;5068154;28;20403;-79
2021/03/14 10:33:04;;;;;;;3.80;1.45;;;;;;;4.50;67.12;98661.81;5068607;28;20475;-79
2021/03/14 10:35:31;;;;;;;7.07;1.33;;;;;;;4.32;66.86;98646.56;5068293;28;20129;-80
2021/03/14 10:37:57;;;;;;;5.97;1.05;;;;;;;4.59;68.09;98653.66;5068668;28;20048;-80
2021/03/14 10:40:25;;;;;;;2.65;1.70;;;;;;;4.66;68.06;98661.91;5068729;28;20048;-80
2021/03/14 10:42:53;;;;;;;5.30;1.45;;;;;;;4.52;67.60;98635.59;5069584;28;20098;-80
2021/03/14 10:45:21;;;;;;;2.45;1.60;;;;;;;4.55;66.42;98628.03;5073323;28;20049;-79
2021/03/14 10:48:00;;;;;;;4.13;1.42;;;;;;;4.73;66.44;98645.97;5074652;28;20048;-80
2021/03/14 10:50:35;;;;;;;4.30;1.10;;;;;;;4.84;66.63;98644.84;5058938;28;20052;-78
2021/03/14 10:53:15;;;;;;;3.63;1.48;;;;;;;5.06;64.56;98660.44;5080139;28;20244;-79
2021/03/14 10:55:43;;;;;;;5.05;1.35;;;;;;;5.08;64.97;98650.34;5085098;28;20443;-78
2021/03/14 10:58:13;;;;;;;2.65;1.45;;;;;;;5.01;64.22;98637.69;5079320;28;20162;-78
2021/03/14 11:00:43;;;;;;;3.50;2.25;;;;;;;5.16;64.13;98652.22;5085120;28;20070;-78
2021/03/14 11:03:25;;;;;;;2.78;1.50;;;;;;;5.39;63.15;98657.00;5066822;28;20135;-79
2021/03/14 11:05:51;;;;;;;3.45;1.60;;;;;;;5.32;63.94;98638.78;5053460;28;20045;-79
2021/03/14 11:08:20;;;;;;;9.98;1.63;;;;;;;5.14;61.61;98643.47;5092095;28;20516;-79
2021/03/14 11:10:56;;;;;;;8.88;1.42;;;;;;;5.61;63.27;98655.53;5073558;28;20090;-79
2021/03/14 11:13:23;;;;;;;10.07;1.63;;;;;;;5.72;63.05;98632.81;5081894;28;20546;-78
2021/03/14 11:16:05;;;;;;;2.05;1.17;;;;;;;5.35;62.68;98626.00;5071532;28;20064;-79
2021/03/14 11:18:32;;;;;;;4.65;1.30;;;;;;;5.61;63.52;98650.16;5070364;28;20140;-80
2021/03/14 11:20:58;;;;;;;4.03;1.02;;;;;;;5.70;63.99;98643.75;5072242;28;20074;-79
2021/03/14 11:23:24;;;;;;;2.78;1.15;;;;;;;6.12;63.73;98647.38;5070287;28;20464;-79
2021/03/14 11:25:52;;;;;;;6.88;1.60;;;;;;;6.35;63.80;98642.97;5071758;28;20060;-79
2021/03/14 11:28:21;;;;;;;2.88;1.00;;;;;;;6.64;61.88;98644.28;5072216;28;20059;-79
2021/03/14 11:30:48;;;;;;;3.57;1.20;;;;;;;6.31;60.77;98644.31;5070805;28;20098;-79
2021/03/14 11:33:14;;;;;;;1.50;0.80;;;;;;;6.28;60.29;98639.25;5084346;28;20619;-79
2021/03/14 11:35:42;;;;;;;6.75;2.00;;;;;;;6.27;60.98;98628.63;5055689;28;20087;-79
2021/03/14 11:38:12;;;;;;;3.83;1.23;;;;;;;6.31;58.83;98625.41;5068656;28;20153;-80
2021/03/14 11:40:40;;;;;;;5.03;1.33;;;;;;;6.23;58.69;98629.97;5071316;28;20384;-80
2021/03/14 11:43:06;;;;;;;6.43;1.75;;;;;;;6.24;59.20;98631.69;5070803;28;20051;-79
2021/03/14 11:45:44;;;;;;;7.72;2.47;;;;;;;6.16;59.17;98629.84;5071119;28;20052;-79
2021/03/14 11:48:16;;;;;;;4.25;1.05;;;;;;;6.24;59.77;98621.72;5074002;28;20049;-80
2021/03/14 11:50:43;;;;;;;2.88;1.13;;;;;;;6.26;59.46;98613.44;5069923;28;20067;-80
2021/03/14 11:53:10;;;;;;;1.42;0.85;;;;;;;6.29;58.93;98619.38;5070738;28;20377;-79